createdAt,value
2018-05-14T04:09:42.442Z,1005.27
2018-05-14T04:10:07.920Z,1005.26
2018-05-14T04:10:33.411Z,1005.26
2018-05-14T04:10:58.915Z,1005.3
2018-05-14T04:11:24.400Z,1005.25
2018-05-14T04:11:49.865Z,1005.28
2018-05-14T04:12:15.357Z,1005.3
2018-05-14T04:12:40.860Z,1005.29
2018-05-14T04:13:06.310Z,1005.3
2018-05-14T04:13:31.791Z,1005.3
2018-05-14T04:13:57.287Z,1005.3
2018-05-14T04:14:22.784Z,1005.32
2018-05-14T04:14:48.286Z,1005.31
2018-05-14T04:15:13.770Z,1005.29
2018-05-14T04:15:39.279Z,1005.26
2018-05-14T04:16:04.799Z,1005.27
2018-05-14T04:16:30.407Z,1005.29
2018-05-14T04:16:55.795Z,1005.28
2018-05-14T04:17:21.330Z,1005.26
2018-05-14T04:17:46.781Z,1005.27
2018-05-14T04:18:12.271Z,1005.29
2018-05-14T04:18:37.756Z,1005.27
2018-05-14T04:19:03.244Z,1005.26
2018-05-14T04:19:28.725Z,1005.26
2018-05-14T04:19:54.230Z,1005.28
2018-05-14T04:20:19.721Z,1005.31
2018-05-14T04:20:45.274Z,1005.26
2018-05-14T04:21:10.761Z,1005.28
2018-05-14T04:21:36.276Z,1005.26
2018-05-14T04:22:01.815Z,1005.26
2018-05-14T04:22:27.332Z,1005.26
2018-05-14T04:22:52.837Z,1005.28
2018-05-14T04:23:18.404Z,1005.28
2018-05-14T04:23:43.937Z,1005.32
2018-05-14T04:24:09.414Z,1005.28
2018-05-14T04:24:34.912Z,1005.27
2018-05-14T04:25:00.451Z,1005.26
2018-05-14T04:25:25.933Z,1005.26
2018-05-14T04:25:51.434Z,1005.26
2018-05-14T04:26:16.931Z,1005.29
2018-05-14T04:26:42.393Z,1005.26
2018-05-14T04:27:07.861Z,1005.25
2018-05-14T04:28:21.684Z,1005.28
2018-05-14T04:28:47.166Z,1005.29
2018-05-14T04:29:12.673Z,1005.26
2018-05-14T04:29:38.181Z,1005.3
2018-05-14T04:30:03.637Z,1005.34
2018-05-14T04:30:29.134Z,1005.3
2018-05-14T04:31:47.545Z,1005.33
2018-05-14T04:32:13.053Z,1005.32
2018-05-14T04:32:38.555Z,1005.32
2018-05-14T04:33:47.282Z,1005.32
2018-05-14T04:34:12.782Z,1005.29
2018-05-14T04:34:38.269Z,1005.3
2018-05-14T04:35:03.787Z,1005.35
2018-05-14T04:35:29.273Z,1005.33
2018-05-14T04:35:54.779Z,1005.35
2018-05-14T04:36:20.315Z,1005.38
2018-05-14T04:36:45.780Z,1005.38
2018-05-14T04:37:11.231Z,1005.38
2018-05-14T04:37:36.766Z,1005.39
2018-05-14T04:38:02.254Z,1005.38
2018-05-14T04:38:27.734Z,1005.41
2018-05-14T04:38:53.252Z,1005.42
2018-05-14T04:39:18.759Z,1005.44
2018-05-14T04:39:44.230Z,1005.4
2018-05-14T04:40:09.727Z,1005.4
2018-05-14T04:40:35.213Z,1005.43
2018-05-14T04:41:00.714Z,1005.43
2018-05-14T04:41:26.219Z,1005.42
2018-05-14T04:41:51.740Z,1005.4
2018-05-14T04:42:17.229Z,1005.39
2018-05-14T04:42:42.715Z,1005.4
2018-05-14T04:43:08.190Z,1005.41
2018-05-14T04:43:33.686Z,1005.41
2018-05-14T04:43:59.160Z,1005.42
2018-05-14T04:44:24.639Z,1005.4
2018-05-14T04:44:50.125Z,1005.45
2018-05-14T04:45:15.613Z,1005.4
2018-05-14T04:45:41.105Z,1005.4
2018-05-14T04:46:06.566Z,1005.44
2018-05-14T04:46:32.049Z,1005.4
2018-05-14T04:46:57.572Z,1005.4
2018-05-14T04:47:23.051Z,1005.43
2018-05-14T04:47:48.585Z,1005.42
2018-05-14T04:48:14.103Z,1005.46
2018-05-14T04:48:39.573Z,1005.43
2018-05-14T04:49:05.089Z,1005.43
2018-05-14T04:49:30.643Z,1005.41
2018-05-14T04:49:56.218Z,1005.44
2018-05-14T04:50:21.705Z,1005.49
2018-05-14T04:50:47.231Z,1005.44
2018-05-14T04:51:12.724Z,1005.5
2018-05-14T04:51:38.221Z,1005.46
2018-05-14T04:52:03.743Z,1005.45
2018-05-14T04:52:29.264Z,1005.47
2018-05-14T04:53:32.863Z,1005.47
2018-05-14T04:53:58.353Z,1005.47
2018-05-14T04:54:23.903Z,1005.49
2018-05-14T04:54:49.396Z,1005.51
2018-05-14T04:55:14.881Z,1005.5
2018-05-14T04:55:40.350Z,1005.5
2018-05-14T04:56:05.870Z,1005.52
2018-05-14T04:56:31.393Z,1005.45
2018-05-14T04:56:56.941Z,1005.45
2018-05-14T04:57:22.441Z,1005.48
2018-05-14T04:57:47.911Z,1005.48
2018-05-14T04:58:13.440Z,1005.44
2018-05-14T04:59:12.027Z,1005.5
2018-05-14T04:59:37.469Z,1005.47
2018-05-14T05:00:02.981Z,1005.49
2018-05-14T05:00:28.520Z,1005.46
2018-05-14T05:00:53.990Z,1005.44
2018-05-14T05:01:19.451Z,1005.47
2018-05-14T05:01:44.967Z,1005.45
2018-05-14T05:02:10.476Z,1005.48
2018-05-14T05:02:35.962Z,1005.46
2018-05-14T05:03:01.466Z,1005.47
2018-05-14T05:03:26.963Z,1005.47
2018-05-14T05:03:52.437Z,1005.48
2018-05-14T05:04:17.937Z,1005.5
2018-05-14T05:04:43.408Z,1005.45
2018-05-14T05:05:08.897Z,1005.51
2018-05-14T05:05:34.382Z,1005.5
2018-05-14T05:05:59.857Z,1005.49
2018-05-14T05:06:25.347Z,1005.5
2018-05-14T05:06:50.840Z,1005.49
2018-05-14T05:07:16.344Z,1005.48
2018-05-14T05:07:41.821Z,1005.46
2018-05-14T05:08:07.288Z,1005.49
2018-05-14T05:08:32.784Z,1005.51
2018-05-14T05:08:58.279Z,1005.51
2018-05-14T05:09:23.760Z,1005.51
2018-05-14T05:09:49.298Z,1005.52
2018-05-14T05:10:14.783Z,1005.54
2018-05-14T05:10:40.300Z,1005.48
2018-05-14T05:11:05.746Z,1005.55
2018-05-14T05:11:31.288Z,1005.49
2018-05-14T05:11:56.769Z,1005.5
2018-05-14T05:12:22.252Z,1005.51
2018-05-14T05:12:47.729Z,1005.48
2018-05-14T05:13:13.202Z,1005.49
2018-05-14T05:14:32.187Z,1005.45
2018-05-14T05:14:57.643Z,1005.46
2018-05-14T05:15:23.442Z,1005.49
2018-05-14T05:15:48.929Z,1005.48
2018-05-14T05:16:14.350Z,1005.49
2018-05-14T05:16:39.897Z,1005.51
2018-05-14T05:17:05.482Z,1005.47
2018-05-14T05:17:31.015Z,1005.52
2018-05-14T05:17:56.703Z,1005.51
2018-05-14T05:18:22.224Z,1005.5
2018-05-14T05:18:48.181Z,1005.5
2018-05-14T05:19:13.727Z,1005.53
2018-05-14T05:19:39.666Z,1005.54
2018-05-14T05:20:05.243Z,1005.52
2018-05-14T05:20:31.313Z,1005.53
2018-05-14T05:20:57.226Z,1005.52
2018-05-14T05:21:22.737Z,1005.55
2018-05-14T05:21:48.426Z,1005.57
2018-05-14T05:22:14.092Z,1005.54
2018-05-14T05:22:39.750Z,1005.54
2018-05-14T05:23:05.335Z,1005.53
2018-05-14T05:23:30.893Z,1005.57
2018-05-14T05:23:56.752Z,1005.57
2018-05-14T05:24:22.484Z,1005.56
2018-05-14T05:24:48.269Z,1005.61
2018-05-14T05:25:14.010Z,1005.59
2018-05-14T05:25:39.821Z,1005.55
2018-05-14T05:26:05.530Z,1005.56
2018-05-14T05:26:31.216Z,1005.6
2018-05-14T05:26:57.493Z,1005.58
2018-05-14T05:27:23.217Z,1005.61
2018-05-14T05:27:49.033Z,1005.59
2018-05-14T05:28:14.421Z,1005.58
2018-05-14T05:28:39.931Z,1005.56
2018-05-14T05:29:05.396Z,1005.6
2018-05-14T05:29:30.874Z,1005.56
2018-05-14T05:29:56.330Z,1005.6
2018-05-14T05:30:21.809Z,1005.6
2018-05-14T05:30:47.330Z,1005.58
2018-05-14T05:31:12.856Z,1005.57
2018-05-14T05:31:38.329Z,1005.6
2018-05-14T05:32:03.853Z,1005.61
2018-05-14T05:32:29.332Z,1005.64
2018-05-14T05:32:54.812Z,1005.66
2018-05-14T05:33:20.272Z,1005.58
2018-05-14T05:33:45.743Z,1005.61
2018-05-14T05:34:11.231Z,1005.61
2018-05-14T05:34:36.738Z,1005.61
2018-05-14T05:35:02.144Z,1005.62
2018-05-14T05:35:27.688Z,1005.66
2018-05-14T05:35:53.153Z,1005.67
2018-05-14T05:36:18.612Z,1005.68
2018-05-14T05:36:44.119Z,1005.68
2018-05-14T05:38:03.138Z,1005.67
2018-05-14T05:38:28.550Z,1005.71
2018-05-14T05:38:54.014Z,1005.68
2018-05-14T05:39:52.540Z,1005.66
2018-05-14T05:40:18.035Z,1005.68
2018-05-14T05:40:43.529Z,1005.72
2018-05-14T05:41:08.992Z,1005.69
2018-05-14T05:41:34.464Z,1005.72
2018-05-14T05:41:59.958Z,1005.73
2018-05-14T05:42:25.446Z,1005.68
2018-05-14T05:42:50.926Z,1005.73
2018-05-14T05:43:16.387Z,1005.73
2018-05-14T05:43:41.871Z,1005.74
2018-05-14T05:44:07.349Z,1005.69
2018-05-14T05:44:32.816Z,1005.68
2018-05-14T05:44:58.301Z,1005.68
2018-05-14T05:45:23.858Z,1005.74
2018-05-14T05:45:49.280Z,1005.73
2018-05-14T05:46:14.748Z,1005.71
2018-05-14T05:46:40.236Z,1005.74
2018-05-14T05:47:05.755Z,1005.69
2018-05-14T05:47:31.211Z,1005.73
2018-05-14T05:47:56.699Z,1005.71
2018-05-14T05:48:22.177Z,1005.67
2018-05-14T05:48:47.687Z,1005.72
2018-05-14T05:49:13.156Z,1005.73
2018-05-14T05:49:38.623Z,1005.76
2018-05-14T05:50:04.186Z,1005.73
2018-05-14T05:50:29.605Z,1005.69
2018-05-14T05:50:55.126Z,1005.73
2018-05-14T05:51:20.580Z,1005.7
2018-05-14T05:51:46.093Z,1005.72
2018-05-14T05:52:11.605Z,1005.73
2018-05-14T05:52:37.105Z,1005.72
2018-05-14T05:53:02.619Z,1005.76
2018-05-14T05:53:28.094Z,1005.73
2018-05-14T05:53:53.694Z,1005.69
2018-05-14T05:54:19.257Z,1005.73
2018-05-14T05:54:44.769Z,1005.74
2018-05-14T05:55:10.256Z,1005.73
2018-05-14T05:55:35.716Z,1005.72
2018-05-14T05:56:01.249Z,1005.74
2018-05-14T05:56:26.706Z,1005.77
2018-05-14T05:56:52.188Z,1005.71
2018-05-14T05:57:17.681Z,1005.75
2018-05-14T05:57:43.181Z,1005.79
2018-05-14T05:58:08.674Z,1005.75
2018-05-14T05:58:34.123Z,1005.75
2018-05-14T05:58:59.626Z,1005.77
2018-05-14T05:59:25.093Z,1005.76
2018-05-14T05:59:50.587Z,1005.77
2018-05-14T06:00:16.028Z,1005.75
2018-05-14T06:00:41.493Z,1005.74
2018-05-14T06:01:06.970Z,1005.79
2018-05-14T06:01:32.449Z,1005.78
2018-05-14T06:01:57.944Z,1005.81
2018-05-14T06:02:23.419Z,1005.79
2018-05-14T06:02:48.890Z,1005.77
2018-05-14T06:03:14.401Z,1005.81
2018-05-14T06:03:39.898Z,1005.81
2018-05-14T06:04:05.372Z,1005.82
2018-05-14T06:04:30.858Z,1005.84
2018-05-14T06:04:56.494Z,1005.81
2018-05-14T06:05:22.194Z,1005.81
2018-05-14T06:05:47.923Z,1005.81
2018-05-14T06:06:13.469Z,1005.82
2018-05-14T06:06:38.966Z,1005.84
2018-05-14T06:07:04.469Z,1005.9
2018-05-14T06:07:29.938Z,1005.87
2018-05-14T06:07:55.401Z,1005.87
2018-05-14T06:08:20.885Z,1005.87
2018-05-14T06:08:46.919Z,1005.92
2018-05-14T06:09:12.472Z,1005.91
2018-05-14T06:09:38.133Z,1005.91
2018-05-14T06:10:03.965Z,1005.92
2018-05-14T06:10:29.498Z,1005.91
2018-05-14T06:10:54.997Z,1005.92
2018-05-14T06:11:20.517Z,1005.9
2018-05-14T06:11:45.956Z,1005.93
2018-05-14T06:12:11.435Z,1005.93
2018-05-14T06:12:36.920Z,1005.89
2018-05-14T06:13:02.387Z,1005.91
2018-05-14T06:13:27.889Z,1005.89
2018-05-14T06:13:53.339Z,1005.86
2018-05-14T06:14:18.830Z,1005.84
2018-05-14T06:14:44.295Z,1005.88
2018-05-14T06:15:09.767Z,1005.83
2018-05-14T06:15:35.360Z,1005.88
2018-05-14T06:16:00.769Z,1005.83
2018-05-14T06:16:26.242Z,1005.85
2018-05-14T06:16:51.898Z,1005.86
2018-05-14T06:17:17.405Z,1005.88
2018-05-14T06:17:42.884Z,1005.86
2018-05-14T06:18:08.369Z,1005.85
2018-05-14T06:18:33.868Z,1005.83
2018-05-14T06:18:59.417Z,1005.85
2018-05-14T06:19:24.959Z,1005.89
2018-05-14T06:19:50.454Z,1005.89
2018-05-14T06:20:15.971Z,1005.85
2018-05-14T06:20:41.475Z,1005.83
2018-05-14T06:21:07.070Z,1005.85
2018-05-14T06:21:32.566Z,1005.9
2018-05-14T06:21:58.086Z,1005.84
2018-05-14T06:22:23.606Z,1005.9
2018-05-14T06:22:49.067Z,1005.88
2018-05-14T06:23:14.755Z,1005.86
2018-05-14T06:23:40.296Z,1005.86
2018-05-14T06:24:05.810Z,1005.87
2018-05-14T06:24:31.331Z,1005.87
2018-05-14T06:24:56.862Z,1005.89
2018-05-14T06:25:22.584Z,1005.9
2018-05-14T06:25:48.055Z,1005.88
2018-05-14T06:26:13.564Z,1005.89
2018-05-14T06:26:39.048Z,1005.86
2018-05-14T06:27:04.552Z,1005.86
2018-05-14T06:27:30.050Z,1005.89
2018-05-14T06:27:55.624Z,1005.88
2018-05-14T06:28:21.048Z,1005.88
2018-05-14T06:28:46.578Z,1005.9
2018-05-14T06:29:12.022Z,1005.91
2018-05-14T06:29:37.637Z,1005.91
2018-05-14T06:30:03.137Z,1005.92
2018-05-14T06:30:28.639Z,1005.94
2018-05-14T06:30:54.163Z,1005.95
2018-05-14T06:31:19.693Z,1005.92
2018-05-14T06:31:45.277Z,1005.96
2018-05-14T06:32:10.858Z,1005.94
2018-05-14T06:32:36.368Z,1005.92
2018-05-14T06:33:01.827Z,1005.93
2018-05-14T06:33:27.337Z,1005.94
2018-05-14T06:33:52.988Z,1005.94
2018-05-14T06:34:18.499Z,1005.96
2018-05-14T06:34:44.162Z,1005.94
2018-05-14T06:35:09.639Z,1005.92
2018-05-14T06:35:35.155Z,1005.93
2018-05-14T06:36:00.696Z,1005.94
2018-05-14T06:36:26.171Z,1005.95
2018-05-14T06:36:51.670Z,1005.92
2018-05-14T06:37:17.133Z,1005.92
2018-05-14T06:37:42.784Z,1005.84
2018-05-14T06:38:08.286Z,1005.89
2018-05-14T06:38:33.756Z,1005.9
2018-05-14T06:38:59.479Z,1005.88
2018-05-14T06:39:25.078Z,1005.88
2018-05-14T06:39:50.619Z,1005.88
2018-05-14T06:40:16.143Z,1005.87
2018-05-14T06:40:41.611Z,1005.86
2018-05-14T06:41:07.093Z,1005.89
2018-05-14T06:41:32.599Z,1005.88
2018-05-14T06:41:58.105Z,1005.9
2018-05-14T06:42:23.557Z,1005.91
2018-05-14T06:42:49.082Z,1005.85
2018-05-14T06:43:14.559Z,1005.89
2018-05-14T06:43:40.063Z,1005.92
2018-05-14T06:44:05.592Z,1005.91
2018-05-14T06:44:31.051Z,1005.93
2018-05-14T06:44:56.537Z,1005.9
2018-05-14T06:45:22.088Z,1005.94
2018-05-14T06:45:47.716Z,1005.93
2018-05-14T06:46:13.633Z,1005.9
2018-05-14T06:46:39.232Z,1005.95
2018-05-14T06:47:04.964Z,1005.93
2018-05-14T06:47:30.665Z,1005.99
2018-05-14T06:47:56.386Z,1005.95
2018-05-14T06:48:22.142Z,1005.96
2018-05-14T06:48:47.759Z,1006
2018-05-14T06:49:13.495Z,1006.04
2018-05-14T06:49:39.165Z,1006.03
2018-05-14T06:50:04.804Z,1006
2018-05-14T06:50:30.493Z,1005.99
2018-05-14T06:50:56.254Z,1006
2018-05-14T06:51:21.757Z,1006
2018-05-14T06:51:47.224Z,1006.03
2018-05-14T06:52:12.716Z,1005.98
2018-05-14T06:52:38.202Z,1006.03
2018-05-14T06:53:03.715Z,1006.01
2018-05-14T06:53:29.214Z,1006.03
2018-05-14T06:53:54.672Z,1006.02
2018-05-14T06:54:20.165Z,1006
2018-05-14T06:54:45.682Z,1006.02
2018-05-14T06:55:11.178Z,1006.01
2018-05-14T06:55:36.644Z,1006.03
2018-05-14T06:56:02.134Z,1005.98
2018-05-14T06:56:27.640Z,1005.98
2018-05-14T06:56:53.151Z,1006.02
2018-05-14T06:57:18.627Z,1006
2018-05-14T06:57:44.154Z,1006.03
2018-05-14T06:58:09.658Z,1005.99
2018-05-14T06:58:35.141Z,1005.99
2018-05-14T06:59:00.651Z,1006.01
2018-05-14T06:59:26.160Z,1006
2018-05-14T06:59:51.628Z,1006.02
2018-05-14T07:00:17.137Z,1006
2018-05-14T07:00:42.633Z,1005.97
2018-05-14T07:01:08.352Z,1005.98
2018-05-14T07:01:33.889Z,1006
2018-05-14T07:01:59.527Z,1006
2018-05-14T07:02:25.307Z,1005.99
2018-05-14T07:02:51.022Z,1005.97
2018-05-14T07:03:16.590Z,1006.04
2018-05-14T07:03:42.248Z,1005.99
2018-05-14T07:04:07.822Z,1006
2018-05-14T07:04:33.409Z,1005.98
2018-05-14T07:04:58.800Z,1006.06
2018-05-14T07:05:24.287Z,1006.04
2018-05-14T07:05:49.774Z,1006.06
2018-05-14T07:06:15.257Z,1006.06
2018-05-14T07:06:40.761Z,1006.04
2018-05-14T07:07:06.289Z,1006.06
2018-05-14T07:07:31.777Z,1006.05
2018-05-14T07:07:57.253Z,1006.06
2018-05-14T07:08:22.741Z,1006.07
2018-05-14T07:08:48.250Z,1006.01
2018-05-14T07:09:13.738Z,1006.02
2018-05-14T07:09:39.253Z,1006.09
2018-05-14T07:10:04.758Z,1006.12
2018-05-14T07:10:30.251Z,1006.09
2018-05-14T07:10:55.880Z,1006.13
2018-05-14T07:11:21.553Z,1006.1
2018-05-14T07:11:47.340Z,1006.05
2018-05-14T07:12:12.900Z,1006.07
2018-05-14T07:12:38.361Z,1006.06
2018-05-14T07:13:03.843Z,1006.09
2018-05-14T07:13:29.446Z,1006.08
2018-05-14T07:13:55.009Z,1006.09
2018-05-14T07:14:20.545Z,1006.09
2018-05-14T07:14:46.136Z,1006.09
2018-05-14T07:15:11.620Z,1006.06
2018-05-14T07:15:37.236Z,1006.09
2018-05-14T07:16:02.738Z,1006.11
2018-05-14T07:16:28.574Z,1006.08
2018-05-14T07:16:54.021Z,1006.09
2018-05-14T07:17:19.496Z,1006.09
2018-05-14T07:17:44.962Z,1006.05
2018-05-14T07:18:10.501Z,1006.07
2018-05-14T07:18:36.041Z,1006.09
2018-05-14T07:19:44.744Z,1006.11
2018-05-14T07:20:10.230Z,1006.1
2018-05-14T07:20:35.978Z,1006.11
2018-05-14T07:21:01.745Z,1006.08
2018-05-14T07:21:27.461Z,1006.16
2018-05-14T07:21:53.031Z,1006.1
2018-05-14T07:22:18.582Z,1006.09
2018-05-14T07:22:44.049Z,1006.09
2018-05-14T07:23:09.754Z,1006.07
2018-05-14T07:23:35.215Z,1006.07
2018-05-14T07:24:00.774Z,1006.07
2018-05-14T07:24:26.326Z,1006.13
2018-05-14T07:24:51.856Z,1006.1
2018-05-14T07:25:17.235Z,1006.11
2018-05-14T07:25:42.736Z,1006.09
2018-05-14T07:26:08.204Z,1006.09
2018-05-14T07:26:33.676Z,1006.13
2018-05-14T07:26:59.148Z,1006.13
2018-05-14T07:27:24.632Z,1006.13
2018-05-14T07:27:50.341Z,1006.14
2018-05-14T07:29:09.056Z,1006.15
2018-05-14T07:29:34.549Z,1006.13
2018-05-14T07:30:00.303Z,1006.15
2018-05-14T07:30:25.534Z,1006.12
2018-05-14T07:30:51.013Z,1006.16
2018-05-14T07:31:16.450Z,1006.14
2018-05-14T07:31:41.899Z,1006.2
2018-05-14T07:32:07.376Z,1006.2
2018-05-14T07:32:32.871Z,1006.19
2018-05-14T07:32:58.378Z,1006.21
2018-05-14T07:33:23.803Z,1006.23
2018-05-14T07:33:49.289Z,1006.23
2018-05-14T07:34:14.810Z,1006.19
2018-05-14T07:34:40.289Z,1006.23
2018-05-14T07:35:05.773Z,1006.2
2018-05-14T07:35:31.280Z,1006.28
2018-05-14T07:35:56.790Z,1006.19
2018-05-14T07:36:22.346Z,1006.21
2018-05-14T07:36:47.732Z,1006.2
2018-05-14T07:37:13.226Z,1006.23
2018-05-14T07:37:38.693Z,1006.22
2018-05-14T07:38:04.198Z,1006.27
2018-05-14T07:38:29.707Z,1006.25
2018-05-14T07:38:55.232Z,1006.23
2018-05-14T07:39:20.752Z,1006.26
2018-05-14T07:39:46.179Z,1006.25
2018-05-14T07:40:11.700Z,1006.23
2018-05-14T07:40:37.509Z,1006.23
2018-05-14T07:41:03.096Z,1006.28
2018-05-14T07:41:28.564Z,1006.24
2018-05-14T07:41:54.026Z,1006.22
2018-05-14T07:42:19.571Z,1006.27
2018-05-14T07:42:45.052Z,1006.26
2018-05-14T07:43:10.562Z,1006.28
2018-05-14T07:43:36.038Z,1006.26
2018-05-14T07:44:01.529Z,1006.29
2018-05-14T07:44:27.011Z,1006.34
2018-05-14T07:44:52.473Z,1006.37
2018-05-14T07:45:18.235Z,1006.33
2018-05-14T07:45:43.744Z,1006.31
2018-05-14T07:46:09.219Z,1006.34
2018-05-14T07:46:34.739Z,1006.33
2018-05-14T07:47:00.246Z,1006.38
2018-05-14T07:47:25.787Z,1006.34
2018-05-14T07:47:51.384Z,1006.32
2018-05-14T07:48:54.499Z,1006.3
2018-05-14T07:49:20.078Z,1006.38
2018-05-14T07:49:45.486Z,1006.31
2018-05-14T07:50:11.033Z,1006.35
2018-05-14T07:50:36.520Z,1006.29
2018-05-14T07:51:02.017Z,1006.33
2018-05-14T07:51:27.522Z,1006.32
2018-05-14T07:51:52.995Z,1006.32
2018-05-14T07:52:18.516Z,1006.36
2018-05-14T07:52:44.031Z,1006.39
2018-05-14T07:53:09.526Z,1006.34
2018-05-14T07:53:35.030Z,1006.3
2018-05-14T07:54:00.520Z,1006.34
2018-05-14T07:54:26.020Z,1006.3
2018-05-14T07:54:51.503Z,1006.33
2018-05-14T07:55:17.001Z,1006.36
2018-05-14T07:55:42.503Z,1006.32
2018-05-14T07:56:08.036Z,1006.28
2018-05-14T07:56:33.528Z,1006.3
2018-05-14T07:57:48.345Z,1006.34
2018-05-14T07:58:14.196Z,1006.35
2018-05-14T07:58:39.722Z,1006.36
2018-05-14T07:59:05.482Z,1006.33
2018-05-14T07:59:31.585Z,1006.35
2018-05-14T07:59:57.473Z,1006.3
2018-05-14T08:00:23.068Z,1006.28
2018-05-14T08:00:48.504Z,1006.31
2018-05-14T08:01:14.183Z,1006.29
2018-05-14T08:01:40.119Z,1006.29
2018-05-14T08:02:05.788Z,1006.32
2018-05-14T08:02:31.507Z,1006.31
2018-05-14T08:02:57.278Z,1006.31
2018-05-14T08:03:22.769Z,1006.33
2018-05-14T08:03:48.313Z,1006.34
2018-05-14T08:04:13.805Z,1006.32
2018-05-14T08:04:39.341Z,1006.28
2018-05-14T08:05:04.811Z,1006.35
2018-05-14T08:05:30.366Z,1006.32
2018-05-14T08:05:55.824Z,1006.33
2018-05-14T08:06:21.382Z,1006.33
2018-05-14T08:06:46.882Z,1006.33
2018-05-14T08:07:12.437Z,1006.35
2018-05-14T08:07:37.951Z,1006.31
2018-05-14T08:08:03.431Z,1006.3
2018-05-14T08:08:28.914Z,1006.3
2018-05-14T08:08:54.384Z,1006.29
2018-05-14T08:09:19.863Z,1006.29
2018-05-14T08:09:45.379Z,1006.27
2018-05-14T08:10:10.861Z,1006.27
2018-05-14T08:10:36.353Z,1006.29
2018-05-14T08:11:01.869Z,1006.28
2018-05-14T08:11:27.361Z,1006.29
2018-05-14T08:11:52.869Z,1006.26
2018-05-14T08:12:18.398Z,1006.31
2018-05-14T08:12:43.860Z,1006.32
2018-05-14T08:13:09.357Z,1006.26
2018-05-14T08:13:34.856Z,1006.32
2018-05-14T08:14:00.344Z,1006.34
2018-05-14T08:14:25.814Z,1006.33
2018-05-14T08:14:51.324Z,1006.31
2018-05-14T08:15:16.850Z,1006.36
2018-05-14T08:15:42.336Z,1006.37
2018-05-14T08:16:07.846Z,1006.36
2018-05-14T08:16:33.352Z,1006.36
2018-05-14T08:16:58.979Z,1006.35
2018-05-14T08:17:24.398Z,1006.37
2018-05-14T08:17:49.884Z,1006.35
2018-05-14T08:18:15.355Z,1006.38
2018-05-14T08:18:40.871Z,1006.37
2018-05-14T08:19:06.342Z,1006.35
2018-05-14T08:19:31.807Z,1006.36
2018-05-14T08:19:57.282Z,1006.37
2018-05-14T08:20:22.749Z,1006.36
2018-05-14T08:20:48.262Z,1006.37
2018-05-14T08:21:13.711Z,1006.37
2018-05-14T08:21:39.210Z,1006.38
2018-05-14T08:22:04.717Z,1006.37
2018-05-14T08:22:30.202Z,1006.34
2018-05-14T08:22:55.682Z,1006.35
2018-05-14T08:23:21.147Z,1006.36
2018-05-14T08:23:46.741Z,1006.36
2018-05-14T08:24:12.095Z,1006.35
2018-05-14T08:25:31.189Z,1006.34
2018-05-14T08:25:56.659Z,1006.32
2018-05-14T08:26:22.386Z,1006.32
2018-05-14T08:26:47.912Z,1006.34
2018-05-14T08:28:01.171Z,1006.37
2018-05-14T08:28:26.658Z,1006.34
2018-05-14T08:28:52.151Z,1006.33
2018-05-14T08:29:17.671Z,1006.32
2018-05-14T08:29:43.231Z,1006.33
2018-05-14T08:30:08.731Z,1006.34
2018-05-14T08:30:34.239Z,1006.36
2018-05-14T08:30:59.721Z,1006.33
2018-05-14T08:31:25.427Z,1006.31
2018-05-14T08:31:50.840Z,1006.23
2018-05-14T08:32:16.310Z,1006.31
2018-05-14T08:32:41.830Z,1006.28
2018-05-14T08:33:07.456Z,1006.31
2018-05-14T08:33:32.858Z,1006.28
2018-05-14T08:33:58.375Z,1006.29
2018-05-14T08:34:23.869Z,1006.29
2018-05-14T08:34:49.373Z,1006.32
2018-05-14T08:35:14.836Z,1006.31
2018-05-14T08:35:40.344Z,1006.33
2018-05-14T08:36:05.841Z,1006.31
2018-05-14T08:36:31.417Z,1006.33
2018-05-14T08:36:56.935Z,1006.33
2018-05-14T08:37:22.422Z,1006.36
2018-05-14T08:37:48.263Z,1006.35
2018-05-14T08:38:13.632Z,1006.34
2018-05-14T08:38:39.096Z,1006.33
2018-05-14T08:39:04.598Z,1006.33
2018-05-14T08:39:30.177Z,1006.33
2018-05-14T08:39:55.781Z,1006.4
2018-05-14T08:40:21.284Z,1006.36
2018-05-14T08:40:46.778Z,1006.37
2018-05-14T08:41:12.284Z,1006.35
2018-05-14T08:41:37.755Z,1006.36
2018-05-14T08:42:03.317Z,1006.39
2018-05-14T08:42:28.839Z,1006.33
2018-05-14T08:42:54.304Z,1006.32
2018-05-14T08:43:19.790Z,1006.35
2018-05-14T08:43:45.279Z,1006.32
2018-05-14T08:44:10.780Z,1006.35
2018-05-14T08:44:36.295Z,1006.35
2018-05-14T08:45:01.789Z,1006.36
2018-05-14T08:45:27.307Z,1006.38
2018-05-14T08:45:52.941Z,1006.35
2018-05-14T08:46:18.556Z,1006.38
2018-05-14T08:46:44.075Z,1006.4
2018-05-14T08:47:09.591Z,1006.38
2018-05-14T08:47:35.083Z,1006.38
2018-05-14T08:48:00.617Z,1006.4
2018-05-14T08:48:26.059Z,1006.39
2018-05-14T08:48:51.583Z,1006.41
2018-05-14T08:49:17.251Z,1006.34
2018-05-14T08:49:42.650Z,1006.37
2018-05-14T08:50:08.215Z,1006.37
2018-05-14T08:50:33.741Z,1006.39
2018-05-14T08:50:59.391Z,1006.39
2018-05-14T08:51:24.937Z,1006.33
2018-05-14T08:51:50.383Z,1006.36
2018-05-14T08:52:16.126Z,1006.37
2018-05-14T08:52:41.636Z,1006.36
2018-05-14T08:53:50.424Z,1006.37
2018-05-14T08:54:16.024Z,1006.38
2018-05-14T08:54:41.494Z,1006.39
2018-05-14T08:55:07.068Z,1006.38
2018-05-14T08:55:32.578Z,1006.37
2018-05-14T08:55:58.062Z,1006.37
2018-05-14T08:56:23.566Z,1006.38
2018-05-14T08:56:49.050Z,1006.39
2018-05-14T08:57:14.615Z,1006.4
2018-05-14T08:57:40.182Z,1006.38
2018-05-14T08:58:05.653Z,1006.35
2018-05-14T08:58:32.053Z,1006.35
2018-05-14T08:58:57.621Z,1006.39
2018-05-14T08:59:23.121Z,1006.41
2018-05-14T08:59:48.628Z,1006.34
2018-05-14T09:00:14.159Z,1006.38
2018-05-14T09:00:39.703Z,1006.41
2018-05-14T09:01:05.124Z,1006.38
2018-05-14T09:01:30.655Z,1006.41
2018-05-14T09:01:56.325Z,1006.38
2018-05-14T09:02:22.026Z,1006.36
2018-05-14T09:02:47.458Z,1006.39
2018-05-14T09:03:12.943Z,1006.37
2018-05-14T09:03:38.760Z,1006.41
2018-05-14T09:04:04.252Z,1006.42
2018-05-14T09:04:29.743Z,1006.4
2018-05-14T09:04:55.262Z,1006.39
2018-05-14T09:05:20.772Z,1006.35
2018-05-14T09:05:46.309Z,1006.37
2018-05-14T09:06:11.770Z,1006.35
2018-05-14T09:06:37.242Z,1006.36
2018-05-14T09:07:02.761Z,1006.41
2018-05-14T09:08:06.436Z,1006.39
2018-05-14T09:08:31.943Z,1006.36
2018-05-14T09:08:57.437Z,1006.38
2018-05-14T09:09:22.941Z,1006.4
2018-05-14T09:09:48.475Z,1006.35
2018-05-14T09:10:13.948Z,1006.37
2018-05-14T09:10:39.439Z,1006.39
2018-05-14T09:11:04.982Z,1006.32
2018-05-14T09:11:30.426Z,1006.32
2018-05-14T09:11:55.905Z,1006.3
2018-05-14T09:12:21.388Z,1006.39
2018-05-14T09:12:46.891Z,1006.32
2018-05-14T09:13:12.384Z,1006.33
2018-05-14T09:13:37.885Z,1006.33
2018-05-14T09:14:03.364Z,1006.35
2018-05-14T09:14:28.870Z,1006.34
2018-05-14T09:14:54.417Z,1006.31
2018-05-14T09:15:19.917Z,1006.33
2018-05-14T09:15:45.606Z,1006.32
2018-05-14T09:16:11.069Z,1006.33
2018-05-14T09:16:36.566Z,1006.36
2018-05-14T09:17:02.072Z,1006.32
2018-05-14T09:17:27.589Z,1006.34
2018-05-14T09:17:53.063Z,1006.3
2018-05-14T09:18:18.550Z,1006.31
2018-05-14T09:18:44.025Z,1006.31
2018-05-14T09:19:09.603Z,1006.34
2018-05-14T09:19:35.482Z,1006.32
2018-05-14T09:20:01.084Z,1006.33
2018-05-14T09:20:26.701Z,1006.31
2018-05-14T09:20:52.333Z,1006.32
2018-05-14T09:21:18.136Z,1006.32
2018-05-14T09:21:43.924Z,1006.37
2018-05-14T09:22:09.566Z,1006.34
2018-05-14T09:22:35.291Z,1006.34
2018-05-14T09:23:01.112Z,1006.31
2018-05-14T09:23:26.844Z,1006.31
2018-05-14T09:23:52.356Z,1006.32
2018-05-14T09:24:17.894Z,1006.34
2018-05-14T09:24:43.579Z,1006.34
2018-05-14T09:25:09.232Z,1006.31
2018-05-14T09:25:34.922Z,1006.32
2018-05-14T09:26:00.737Z,1006.33
2018-05-14T09:26:26.456Z,1006.35
2018-05-14T09:26:52.374Z,1006.35
2018-05-14T09:27:17.992Z,1006.33
2018-05-14T09:27:44.399Z,1006.4
2018-05-14T09:28:10.136Z,1006.35
2018-05-14T09:28:36.096Z,1006.32
2018-05-14T09:29:01.770Z,1006.31
2018-05-14T09:29:28.017Z,1006.35
2018-05-14T09:29:53.519Z,1006.34
2018-05-14T09:30:19.421Z,1006.32
2018-05-14T09:30:45.253Z,1006.34
2018-05-14T09:31:11.207Z,1006.37
2018-05-14T09:31:36.913Z,1006.37